Time;durP1;ratioP1;P1;durP2;ratioP2;P2;SDS_P1;SDS_P2;PMS_P1;PMS_P2;Temp;Humidity;BMP_temperature;BMP_pressure;BME280_temperature;BME280_humidity;BME280_pressure;Samples;Min_cycle;Max_cycle;Signal;HPM_P1;HPM_P2
2022/12/13 00:01:21;;;;;;;15.27;5.07;;;-7.90;99.90;;;;;;5094825;28;20048;-61
2022/12/13 00:03:51;;;;;;;20.60;5.22;;;-7.90;99.90;;;;;;5083946;28;20148;-61
2022/12/13 00:06:18;;;;;;;26.35;6.03;;;-7.90;99.90;;;;;;5091966;28;20048;-61
2022/12/13 00:08:44;;;;;;;;;;;-7.90;99.90;;;;;;5057515;28;20471;-61
2022/12/13 00:11:13;;;;;;;10.73;4.60;;;-7.90;99.90;;;;;;5094978;28;19953;-61
2022/12/13 00:13:41;;;;;;;13.63;5.65;;;-7.90;99.90;;;;;;5091948;28;20044;-61
2022/12/13 00:16:13;;;;;;;13.65;5.10;;;-7.90;99.90;;;;;;5085385;28;20067;-61
2022/12/13 00:18:40;;;;;;;14.88;4.53;;;-8.00;99.90;;;;;;5099456;28;20134;-61
2022/12/13 00:21:13;;;;;;;8.68;3.70;;;-8.00;99.90;;;;;;5094188;28;20040;-60
2022/12/13 00:23:39;;;;;;;10.18;4.30;;;-8.00;99.90;;;;;;5094331;28;20543;-60
2022/12/13 00:26:14;;;;;;;23.48;4.95;;;-8.00;99.90;;;;;;5084924;28;20029;-61
2022/12/13 00:28:41;;;;;;;12.23;4.25;;;-7.90;99.90;;;;;;5091319;28;20091;-61
2022/12/13 00:31:08;;;;;;;10.57;4.35;;;-7.90;99.90;;;;;;5094585;28;20036;-61
2022/12/13 00:33:55;;;;;;;14.38;4.90;;;-7.90;99.90;;;;;;5084105;28;20399;-61
2022/12/13 00:36:22;;;;;;;15.88;4.50;;;-7.90;99.90;;;;;;5089416;28;20065;-61
2022/12/13 00:38:59;;;;;;;21.98;5.45;;;-8.00;99.90;;;;;;5114641;28;20071;-61
2022/12/13 00:41:29;;;;;;;11.80;4.90;;;-8.00;99.90;;;;;;5114281;28;20048;-61
2022/12/13 00:43:57;;;;;;;11.88;4.57;;;-7.90;99.90;;;;;;5101837;28;20140;-61
2022/12/13 00:46:25;;;;;;;15.85;4.60;;;-8.00;99.90;;;;;;5113635;28;20079;-60
2022/12/13 00:48:56;;;;;;;10.68;4.90;;;-8.00;99.90;;;;;;5113727;28;20043;-61
2022/12/13 00:51:25;;;;;;;12.63;4.40;;;-8.00;99.90;;;;;;5096067;28;20048;-61
2022/12/13 00:53:52;;;;;;;13.00;5.70;;;-8.00;99.90;;;;;;5111367;28;20040;-61
2022/12/13 00:56:24;;;;;;;11.68;4.50;;;-8.00;99.90;;;;;;5114531;28;20108;-61
2022/12/13 00:58:51;;;;;;;12.88;4.53;;;-8.00;99.90;;;;;;5114663;28;20047;-61
2022/12/13 01:01:23;;;;;;;14.73;5.75;;;-8.00;99.90;;;;;;5093348;28;20089;-61
2022/12/13 01:03:51;;;;;;;15.25;5.18;;;-8.00;99.90;;;;;;5103749;28;20039;-61
2022/12/13 01:06:21;;;;;;;10.82;4.15;;;-8.00;99.90;;;;;;5093487;28;20040;-60
2022/12/13 01:08:48;;;;;;;19.42;5.35;;;-8.00;99.90;;;;;;5085879;28;20041;-61
2022/12/13 01:11:15;;;;;;;16.70;4.32;;;-8.00;99.90;;;;;;5114005;28;20063;-61
2022/12/13 01:13:42;;;;;;;12.73;4.18;;;-8.10;99.90;;;;;;5109114;28;20500;-61
2022/12/13 01:16:10;;;;;;;;;;;-8.20;99.90;;;;;;5108211;28;20063;-61
2022/12/13 01:18:37;;;;;;;12.95;4.68;;;-8.30;99.90;;;;;;5101982;28;20419;-60
2022/12/13 01:21:13;;;;;;;13.45;4.47;;;-8.30;99.90;;;;;;5087671;28;20063;-61
2022/12/13 01:23:41;;;;;;;12.25;4.50;;;-8.20;99.90;;;;;;5095903;28;20068;-61
2022/12/13 01:26:20;;;;;;;15.73;4.57;;;-8.20;99.90;;;;;;5092260;28;20063;-61
2022/12/13 01:28:48;;;;;;;11.60;4.85;;;-8.20;99.90;;;;;;5073269;28;20097;-61
2022/12/13 01:31:17;;;;;;;17.27;4.93;;;-8.10;99.90;;;;;;5073454;28;20048;-61
2022/12/13 01:33:44;;;;;;;19.05;6.03;;;-8.10;99.90;;;;;;5072620;28;20131;-61
2022/12/13 01:36:17;;;;;;;12.55;4.35;;;-8.10;99.90;;;;;;5099685;28;20038;-61
2022/12/13 01:38:43;;;;;;;13.25;4.97;;;-8.00;99.90;;;;;;5113513;28;20051;-61
2022/12/13 01:41:16;;;;;;;20.38;5.88;;;-8.10;99.90;;;;;;5113772;28;20107;-61
2022/12/13 01:43:46;;;;;;;13.15;4.15;;;-8.10;99.90;;;;;;5105326;28;20385;-61
2022/12/13 01:46:16;;;;;;;11.52;3.97;;;-8.10;99.90;;;;;;5084689;28;20284;-61
2022/12/13 01:48:48;;;;;;;12.93;4.32;;;-8.10;99.90;;;;;;5093029;28;20036;-61
2022/12/13 01:51:17;;;;;;;6.70;3.15;;;-8.10;99.90;;;;;;5092025;28;20512;-61
2022/12/13 01:53:47;;;;;;;14.88;4.43;;;-8.20;99.90;;;;;;5062740;28;20520;-61
2022/12/13 01:56:29;;;;;;;7.88;3.25;;;-8.30;99.90;;;;;;5072845;28;20072;-60
2022/12/13 01:58:57;;;;;;;11.95;4.38;;;-8.40;99.90;;;;;;5072590;28;20098;-60
2022/12/13 02:01:24;;;;;;;17.35;5.18;;;-8.30;99.90;;;;;;5094171;28;20092;-60
2022/12/13 02:03:51;;;;;;;10.65;3.95;;;-8.30;99.90;;;;;;5112555;28;20047;-60
2022/12/13 02:06:37;;;;;;;21.77;3.25;;;-8.10;99.90;;;;;;5112058;28;20071;-60
2022/12/13 02:09:06;;;;;;;10.07;2.53;;;-8.30;99.90;;;;;;5096737;28;20068;-60
2022/12/13 02:11:35;;;;;;;5.72;1.90;;;-8.40;99.90;;;;;;5104298;28;20071;-61
2022/12/13 02:14:02;;;;;;;7.90;1.90;;;-8.60;99.90;;;;;;5112821;28;20074;-60
2022/12/13 02:16:51;;;;;;;5.07;1.70;;;-8.70;99.90;;;;;;5106278;28;20064;-61
2022/12/13 02:19:42;;;;;;;8.43;3.00;;;-8.80;99.90;;;;;;5112930;28;20040;-60
2022/12/13 02:22:51;;;;;;;3.80;1.98;;;-8.80;99.90;;;;;;5111953;28;20096;-60
2022/12/13 02:25:57;;;;;;;8.18;3.05;;;-8.70;99.90;;;;;;5054007;28;20454;-60
2022/12/13 02:28:48;;;;;;;9.52;3.20;;;-8.70;99.90;;;;;;5071102;28;20076;-60
2022/12/13 02:31:58;;;;;;;6.90;2.38;;;-8.70;99.90;;;;;;5072253;28;20385;-60
2022/12/13 02:34:46;;;;;;;11.73;4.07;;;-8.70;99.90;;;;;;5102305;28;20044;-60
2022/12/13 02:37:27;;;;;;;12.70;3.45;;;-8.70;99.90;;;;;;5112367;28;20047;-60
2022/12/13 02:40:20;;;;;;;6.82;3.38;;;-8.60;99.90;;;;;;5112557;28;20505;-60
2022/12/13 02:42:58;;;;;;;9.48;3.22;;;-8.60;99.90;;;;;;5093730;28;20048;-60
2022/12/13 02:45:46;;;;;;;11.30;4.25;;;-8.60;99.90;;;;;;5086890;28;20076;-60
2022/12/13 02:48:18;;;;;;;10.52;4.05;;;-8.60;99.90;;;;;;5092175;28;20105;-60
2022/12/13 02:50:45;;;;;;;9.20;3.40;;;-8.50;99.90;;;;;;5086718;28;20477;-60
2022/12/13 02:53:14;;;;;;;16.42;4.30;;;-8.50;99.90;;;;;;5087567;28;20039;-60
2022/12/13 02:55:41;;;;;;;10.60;4.10;;;-8.50;99.90;;;;;;5112157;28;20062;-60
2022/12/13 02:58:12;;;;;;;10.40;3.92;;;-8.50;99.90;;;;;;5093589;28;20063;-60
2022/12/13 03:01:14;;;;;;;9.50;3.47;;;-8.50;99.90;;;;;;5104650;28;20119;-60
2022/12/13 03:04:33;;;;;;;6.57;3.28;;;-8.50;99.90;;;;;;5111513;28;20051;-61
2022/12/13 03:07:08;;;;;;;13.65;3.85;;;-8.60;99.90;;;;;;5112149;28;20126;-61
2022/12/13 03:09:37;;;;;;;8.63;3.95;;;-8.60;99.90;;;;;;5095747;28;20438;-61
2022/12/13 03:15:33;;;;;;;12.10;4.22;;;-8.60;99.90;;;;;;5083694;28;20517;-60
2022/12/13 03:18:17;;;;;;;11.02;4.35;;;-8.70;99.90;;;;;;5110382;28;20039;-60
2022/12/13 03:20:55;;;;;;;9.73;3.33;;;-8.50;99.90;;;;;;5120457;22;20132;-61
2022/12/13 03:23:23;;;;;;;10.15;4.55;;;-8.50;99.90;;;;;;5107740;28;20039;-61
2022/12/13 03:25:53;;;;;;;13.52;3.90;;;-8.50;99.90;;;;;;5107992;28;20453;-61
2022/12/13 03:28:20;;;;;;;9.88;3.92;;;-8.50;99.90;;;;;;5111729;28;20487;-61
2022/12/13 03:30:47;;;;;;;7.68;3.20;;;-8.60;99.90;;;;;;5111653;28;20096;-61
2022/12/13 03:33:14;;;;;;;12.02;3.97;;;-8.60;99.90;;;;;;5096591;28;20062;-61
2022/12/13 03:35:43;;;;;;;21.35;4.68;;;-8.60;99.90;;;;;;5091098;28;20457;-61
2022/12/13 03:38:13;;;;;;;9.32;3.40;;;-8.60;99.90;;;;;;5090728;28;20048;-61
2022/12/13 03:40:54;;;;;;;8.68;3.92;;;-8.70;99.90;;;;;;5095501;28;20472;-61
2022/12/13 03:43:21;;;;;;;18.05;5.35;;;-8.70;99.90;;;;;;5107129;28;20031;-61
2022/12/13 03:45:50;;;;;;;14.65;4.47;;;-8.70;99.90;;;;;;5115807;28;20040;-61
2022/12/13 03:48:17;;;;;;;14.50;4.72;;;-8.70;99.90;;;;;;5115909;28;20086;-61
2022/12/13 03:50:49;;;;;;;13.00;4.57;;;-8.70;99.90;;;;;;5114718;28;20522;-61
2022/12/13 03:53:16;;;;;;;11.13;4.28;;;-8.80;99.90;;;;;;5101890;28;20040;-61
2022/12/13 03:55:59;;;;;;;10.73;4.13;;;-8.80;99.90;;;;;;5095405;28;20078;-61
2022/12/13 03:58:28;;;;;;;13.15;3.88;;;-8.80;99.90;;;;;;5102737;28;20042;-61
2022/12/13 04:01:14;;;;;;;13.20;4.60;;;-8.80;99.90;;;;;;5110872;28;20126;-61
2022/12/13 04:03:43;;;;;;;12.40;4.72;;;-8.80;99.90;;;;;;5111758;28;20090;-61
2022/12/13 04:06:11;;;;;;;11.18;4.43;;;-8.80;99.90;;;;;;5115235;28;20047;-61
2022/12/13 04:08:38;;;;;;;12.98;4.57;;;-8.80;99.90;;;;;;5114726;28;20054;-61
2022/12/13 04:13:52;;;;;;;10.23;4.28;;;-8.90;99.90;;;;;;5095141;28;20044;-61
2022/12/13 04:16:20;;;;;;;10.73;3.70;;;-9.00;99.90;;;;;;5100759;28;20101;-61
2022/12/13 04:18:47;;;;;;;7.80;3.63;;;-9.10;99.90;;;;;;5106766;28;20388;-61
2022/12/13 04:21:14;;;;;;;15.95;3.75;;;-9.10;99.90;;;;;;5108770;28;20044;-61
2022/12/13 04:23:40;;;;;;;;;;;-9.20;99.90;;;;;;5096158;28;20036;-61
2022/12/13 04:26:07;;;;;;;7.25;3.67;;;-9.20;99.90;;;;;;5114821;28;19965;-59
2022/12/13 04:28:34;;;;;;;8.82;3.78;;;-9.20;99.90;;;;;;5106097;28;20115;-61
2022/12/13 04:31:01;;;;;;;8.55;3.65;;;-9.20;99.90;;;;;;5079051;28;20067;-61
2022/12/13 04:33:28;;;;;;;10.75;3.97;;;-9.20;99.90;;;;;;5110547;28;20495;-61
2022/12/13 04:35:54;;;;;;;9.57;4.05;;;-9.10;99.90;;;;;;5110058;28;20036;-61
2022/12/13 04:38:21;;;;;;;16.80;5.15;;;-9.10;99.90;;;;;;5103586;28;20043;-61
2022/12/13 04:40:48;;;;;;;15.30;5.28;;;-9.00;99.90;;;;;;5094515;28;20447;-61
2022/12/13 04:43:15;;;;;;;15.63;5.57;;;-9.00;99.90;;;;;;5076121;28;20115;-61
2022/12/13 04:45:42;;;;;;;10.05;3.83;;;-9.00;99.90;;;;;;5111084;28;20063;-61
2022/12/13 04:48:08;;;;;;;10.15;4.38;;;-8.90;99.90;;;;;;5101517;28;20031;-61
2022/12/13 04:50:35;;;;;;;11.77;4.32;;;-8.90;99.90;;;;;;5110858;28;20059;-61
2022/12/13 04:53:02;;;;;;;10.20;3.85;;;-8.90;99.90;;;;;;5102341;28;20435;-61
2022/12/13 04:55:29;;;;;;;14.90;4.90;;;-8.80;99.90;;;;;;5094343;28;20135;-61
2022/12/13 04:57:56;;;;;;;9.77;5.00;;;-8.90;99.90;;;;;;5111099;28;20082;-61
2022/12/13 05:00:22;;;;;;;14.05;5.00;;;-8.90;99.90;;;;;;5111684;28;20075;-61
2022/12/13 05:02:49;;;;;;;25.60;4.72;;;-8.90;99.90;;;;;;5100926;28;20068;-61
2022/12/13 05:05:16;;;;;;;8.85;4.00;;;-9.00;99.90;;;;;;5093935;28;20040;-61
2022/12/13 05:07:44;;;;;;;12.70;4.40;;;-9.10;99.90;;;;;;5094084;28;20054;-62
2022/12/13 05:10:11;;;;;;;12.50;3.95;;;-9.20;99.90;;;;;;5093913;28;20085;-59
2022/12/13 05:12:58;;;;;;;15.15;4.57;;;-9.20;99.90;;;;;;5092666;28;20050;-61
2022/12/13 05:15:26;;;;;;;12.27;4.85;;;-10.00;99.90;;;;;;5095753;28;20160;-59
2022/12/13 05:17:53;;;;;;;11.90;4.13;;;-9.40;99.90;;;;;;5094756;28;20048;-61
2022/12/13 05:20:19;;;;;;;12.13;3.67;;;-9.50;99.90;;;;;;5092782;28;20079;-61
2022/12/13 05:22:46;;;;;;;11.95;3.92;;;-9.50;99.90;;;;;;5095144;28;20396;-61
2022/12/13 05:25:13;;;;;;;12.95;4.53;;;-9.50;99.90;;;;;;5099404;28;20535;-61
2022/12/13 05:27:40;;;;;;;11.35;4.65;;;-9.50;99.90;;;;;;5110045;28;20403;-61
2022/12/13 05:30:07;;;;;;;10.57;3.70;;;-9.50;99.90;;;;;;5100935;28;20040;-59
2022/12/13 05:32:38;;;;;;;16.38;4.80;;;-9.50;99.90;;;;;;5106193;28;20096;-61
2022/12/13 05:35:16;;;;;;;16.92;4.50;;;-9.60;99.90;;;;;;5104941;28;20044;-61
2022/12/13 05:37:50;;;;;;;13.10;5.20;;;-9.50;99.90;;;;;;5109364;28;20083;-61
2022/12/13 05:40:25;;;;;;;13.65;4.75;;;-9.50;99.90;;;;;;5094376;28;20032;-61
2022/12/13 05:42:52;;;;;;;16.95;5.32;;;-9.50;99.90;;;;;;5109777;28;20081;-61
2022/12/13 05:45:28;;;;;;;17.58;5.80;;;-9.50;99.90;;;;;;5105759;28;20559;-61
2022/12/13 05:47:55;;;;;;;15.48;4.60;;;-9.50;99.90;;;;;;5093879;28;20101;-61
2022/12/13 05:50:22;;;;;;;11.35;4.55;;;-9.50;99.90;;;;;;5093297;28;20090;-61
2022/12/13 05:52:49;;;;;;;15.60;4.20;;;-9.60;99.90;;;;;;5100498;28;20381;-61
2022/12/13 05:55:16;;;;;;;14.52;4.47;;;-9.70;99.90;;;;;;5096086;28;20042;-61
2022/12/13 05:57:43;;;;;;;15.70;5.28;;;-9.70;99.90;;;;;;5103502;28;20649;-61
2022/12/13 06:00:18;;;;;;;11.95;5.95;;;-9.70;99.90;;;;;;5103075;28;20067;-61
2022/12/13 06:02:57;;;;;;;13.00;4.93;;;-9.60;99.90;;;;;;5097947;28;20059;-61
2022/12/13 06:05:28;;;;;;;11.88;5.38;;;-9.60;99.90;;;;;;5099662;28;20507;-61
2022/12/13 06:07:55;;;;;;;16.33;5.68;;;-9.50;99.90;;;;;;5092163;28;20082;-61
2022/12/13 06:10:24;;;;;;;18.23;5.13;;;-9.40;99.90;;;;;;5099183;28;20039;-61
2022/12/13 06:13:04;;;;;;;14.02;4.63;;;-9.40;99.90;;;;;;5104138;28;20043;-61
2022/12/13 06:15:51;;;;;;;16.45;5.88;;;-9.30;99.90;;;;;;5113124;28;20140;-61
2022/12/13 06:18:29;;;;;;;21.42;8.13;;;-9.20;99.90;;;;;;5113053;28;20051;-61
2022/12/13 06:20:57;;;;;;;9.88;4.85;;;-9.20;99.90;;;;;;5110475;28;20084;-59
2022/12/13 06:23:25;;;;;;;13.90;5.20;;;-9.20;99.90;;;;;;5097480;28;20438;-59
2022/12/13 06:25:52;;;;;;;16.13;5.20;;;-9.20;99.90;;;;;;5092453;28;20495;-59
2022/12/13 06:28:19;;;;;;;;;;;-9.20;99.90;;;;;;5095589;28;20123;-59
2022/12/13 06:30:45;;;;;;;14.45;5.10;;;-9.10;99.90;;;;;;5091951;28;20415;-59
2022/12/13 06:33:12;;;;;;;13.38;5.00;;;-9.20;99.90;;;;;;5090894;28;20040;-59
2022/12/13 06:35:39;;;;;;;;;;;-9.10;99.90;;;;;;5092685;28;20093;-61
2022/12/13 06:38:07;;;;;;;25.08;5.75;;;-9.10;99.90;;;;;;5100605;28;20391;-61
2022/12/13 06:40:37;;;;;;;17.38;5.20;;;-9.10;99.90;;;;;;5092603;28;20040;-61
2022/12/13 06:43:05;;;;;;;13.93;4.75;;;-9.10;99.90;;;;;;5095636;28;20068;-61
2022/12/13 06:45:31;;;;;;;10.80;3.55;;;-9.10;99.90;;;;;;5095873;28;20119;-61
2022/12/13 06:47:58;;;;;;;18.05;6.03;;;-9.10;99.90;;;;;;5104425;28;20067;-61
2022/12/13 06:50:25;;;;;;;18.08;6.10;;;-8.90;99.90;;;;;;5110271;28;20070;-59
2022/12/13 06:52:52;;;;;;;17.40;5.57;;;-9.10;99.90;;;;;;5109734;28;20175;-61
2022/12/13 06:55:19;;;;;;;15.50;5.05;;;-9.10;99.90;;;;;;5106398;28;20063;-61
2022/12/13 06:57:50;;;;;;;25.25;6.43;;;-9.10;99.90;;;;;;5092703;28;20059;-61
2022/12/13 07:00:17;;;;;;;25.75;7.20;;;-9.00;99.90;;;;;;5091793;28;20467;-61
2022/12/13 07:02:53;;;;;;;18.55;7.38;;;-9.10;99.90;;;;;;5090236;28;20442;-61
2022/12/13 07:05:21;;;;;;;22.85;7.82;;;-9.00;99.90;;;;;;5091238;28;20058;-61
2022/12/13 07:07:47;;;;;;;23.77;7.32;;;-9.00;99.90;;;;;;5091571;28;20506;-61
2022/12/13 07:10:14;;;;;;;;;;;-9.00;99.90;;;;;;5097454;28;20515;-61
2022/12/13 07:12:48;;;;;;;12.27;4.53;;;-9.10;99.90;;;;;;5101464;28;19920;-61
2022/12/13 07:15:15;;;;;;;;;;;-9.00;99.90;;;;;;5091841;28;20086;-61
2022/12/13 07:17:42;;;;;;;15.90;5.35;;;-9.00;99.90;;;;;;5074726;28;20396;-61
2022/12/13 07:20:10;;;;;;;16.73;6.60;;;-8.90;99.90;;;;;;5090624;28;20109;-61
2022/12/13 07:22:37;;;;;;;19.23;6.28;;;-9.00;99.90;;;;;;5079115;28;20070;-61
2022/12/13 07:25:12;;;;;;;17.83;5.60;;;-9.10;99.90;;;;;;5091488;28;20047;-61
2022/12/13 07:28:00;;;;;;;19.98;6.00;;;-9.10;99.90;;;;;;5089908;28;20561;-61
2022/12/13 07:30:33;;;;;;;16.35;6.22;;;-9.20;99.90;;;;;;5091279;28;20054;-59
2022/12/13 07:33:07;;;;;;;21.85;7.03;;;-9.30;99.90;;;;;;5091752;28;20047;-62
2022/12/13 07:35:34;;;;;;;15.40;5.82;;;-9.30;99.90;;;;;;5091336;28;20048;-61
2022/12/13 07:38:09;;;;;;;21.10;6.78;;;-9.30;99.90;;;;;;5090392;28;20089;-59
2022/12/13 07:40:38;;;;;;;21.33;6.30;;;-9.10;99.90;;;;;;5090964;28;20119;-59
2022/12/13 07:43:05;;;;;;;61.53;16.10;;;-9.10;99.90;;;;;;5091136;28;20097;-61
2022/12/13 07:45:32;;;;;;;77.38;21.65;;;-9.00;99.90;;;;;;5090887;28;20032;-61
2022/12/13 07:48:03;;;;;;;;;;;-9.00;99.90;;;;;;5091557;28;20110;-61
2022/12/13 07:50:31;;;;;;;37.65;11.88;;;-9.00;99.90;;;;;;5096702;28;19960;-61
2022/12/13 07:53:05;;;;;;;20.70;7.72;;;-9.00;99.90;;;;;;5090649;28;20048;-61
2022/12/13 07:55:33;;;;;;;23.60;7.85;;;-8.90;99.90;;;;;;5090757;28;20068;-59
2022/12/13 07:58:05;;;;;;;21.23;7.00;;;-8.90;99.90;;;;;;5091019;28;20043;-61
2022/12/13 08:00:33;;;;;;;19.50;7.38;;;-8.90;99.90;;;;;;5101260;28;20035;-61
2022/12/13 08:03:00;;;;;;;20.02;7.68;;;-8.80;99.90;;;;;;5102241;28;20047;-61
2022/12/13 08:05:27;;;;;;;21.55;6.97;;;-8.80;99.90;;;;;;5110535;28;20384;-61
2022/12/13 08:08:06;;;;;;;13.45;6.55;;;-8.80;99.90;;;;;;5110603;28;20047;-61
2022/12/13 08:10:33;;;;;;;14.65;5.90;;;-8.80;99.90;;;;;;5074967;28;20067;-61
2022/12/13 08:13:02;;;;;;;18.00;6.05;;;-8.70;99.90;;;;;;5090299;28;20067;-61
2022/12/13 08:15:29;;;;;;;30.25;8.45;;;-8.70;99.90;;;;;;5091231;28;20076;-61
2022/12/13 08:17:57;;;;;;;;;;;-8.80;99.90;;;;;;5093807;28;20067;-59
2022/12/13 08:20:24;;;;;;;18.38;6.80;;;-8.90;99.90;;;;;;5072470;28;19924;-61
2022/12/13 08:22:57;;;;;;;21.65;6.35;;;-9.00;99.90;;;;;;5090113;28;20650;-61
2022/12/13 08:25:29;;;;;;;29.48;8.50;;;-9.00;99.90;;;;;;5091095;28;20165;-61
2022/12/13 08:27:56;;;;;;;19.02;6.88;;;-9.00;99.90;;;;;;5092995;28;20040;-61
2022/12/13 08:30:29;;;;;;;22.20;7.20;;;-9.10;99.90;;;;;;5094481;28;20246;-61
2022/12/13 08:32:56;;;;;;;22.77;7.30;;;-9.10;99.90;;;;;;5095559;28;20040;-61
2022/12/13 08:35:27;;;;;;;21.08;7.35;;;-9.10;99.90;;;;;;5100084;28;20443;-61
2022/12/13 08:38:00;;;;;;;20.27;5.95;;;-9.00;99.90;;;;;;5093791;28;20403;-61
2022/12/13 08:40:26;;;;;;;;;;;-9.00;99.90;;;;;;5099157;28;20042;-61
2022/12/13 08:42:56;;;;;;;16.75;6.68;;;-8.90;99.90;;;;;;5093927;28;20392;-61
2022/12/13 08:45:24;;;;;;;17.00;5.50;;;-8.80;99.90;;;;;;5094088;28;20040;-61
2022/12/13 08:47:51;;;;;;;24.30;5.93;;;-8.70;99.90;;;;;;5094454;28;20074;-61
2022/12/13 08:50:18;;;;;;;18.95;5.70;;;-8.60;99.90;;;;;;5096234;28;20071;-61
2022/12/13 08:52:44;;;;;;;13.60;4.82;;;-8.40;99.90;;;;;;5093547;28;20071;-61
2022/12/13 08:55:13;;;;;;;22.02;6.78;;;-8.20;99.90;;;;;;5075558;28;20501;-61
2022/12/13 08:57:41;;;;;;;20.38;6.72;;;-8.10;99.90;;;;;;5095107;28;20043;-61
2022/12/13 09:00:14;;;;;;;18.13;6.57;;;-8.10;99.90;;;;;;5102306;28;20071;-61
2022/12/13 09:02:41;;;;;;;18.92;7.50;;;-8.00;99.90;;;;;;5096123;28;20035;-61
2022/12/13 09:05:09;;;;;;;29.50;9.07;;;-7.90;99.90;;;;;;5092317;28;20123;-61
2022/12/13 09:07:38;;;;;;;28.40;8.88;;;-7.90;99.90;;;;;;5093716;28;20512;-61
2022/12/13 09:10:05;;;;;;;19.75;7.95;;;-7.80;99.90;;;;;;5106410;28;20380;-61
2022/12/13 09:12:54;;;;;;;13.38;5.72;;;-7.80;99.90;;;;;;5095045;28;20044;-61
2022/12/13 09:15:29;;;;;;;27.75;7.28;;;-7.80;99.90;;;;;;5094199;28;20451;-61
2022/12/13 09:18:00;;;;;;;21.17;6.43;;;-7.70;99.90;;;;;;5079293;28;20047;-61
2022/12/13 09:20:32;;;;;;;16.88;6.80;;;-7.80;99.90;;;;;;5121337;22;20070;-63
2022/12/13 09:23:10;;;;;;;22.58;6.35;;;-7.80;99.90;;;;;;5100913;28;20040;-63
2022/12/13 09:25:57;;;;;;;15.25;6.43;;;-7.70;99.90;;;;;;5097824;28;20561;-63
2022/12/13 09:28:33;;;;;;;20.42;6.90;;;-7.60;99.90;;;;;;5093432;28;20488;-63
2022/12/13 09:31:00;;;;;;;19.15;6.88;;;-7.60;99.90;;;;;;5077250;28;20147;-63
2022/12/13 09:33:27;;;;;;;17.02;7.38;;;-7.60;99.90;;;;;;5083794;28;20071;-63
2022/12/13 09:35:56;;;;;;;29.40;6.45;;;-7.60;99.90;;;;;;5072994;28;20742;-63
2022/12/13 09:38:23;;;;;;;13.57;5.63;;;-7.40;99.90;;;;;;5081462;28;20036;-63
2022/12/13 09:40:53;;;;;;;16.40;6.30;;;-7.30;99.90;;;;;;5079908;28;20091;-63
2022/12/13 09:43:30;;;;;;;18.90;7.43;;;-7.20;99.90;;;;;;5083514;28;20099;-63
2022/12/13 09:46:21;;;;;;;18.08;7.35;;;-6.90;99.90;;;;;;5077233;28;20033;-63
2022/12/13 09:48:52;;;;;;;13.30;6.30;;;-6.80;99.90;;;;;;5073955;28;20497;-63
2022/12/13 09:51:28;;;;;;;17.35;6.40;;;-6.80;99.90;;;;;;5092571;28;20044;-63
2022/12/13 09:54:17;;;;;;;15.98;5.97;;;-6.70;99.90;;;;;;5092987;28;20044;-63
2022/12/13 09:56:49;;;;;;;13.00;6.28;;;-6.60;99.90;;;;;;5083920;28;20451;-63
2022/12/13 09:59:43;;;;;;;12.05;6.10;;;-6.50;99.90;;;;;;5075165;28;20106;-63
2022/12/13 10:02:25;;;;;;;17.90;6.88;;;-6.40;99.90;;;;;;5069585;28;20473;-63
2022/12/13 10:04:53;;;;;;;19.45;6.18;;;-6.30;99.90;;;;;;5072374;28;20055;-63
2022/12/13 10:07:27;;;;;;;25.20;7.03;;;-6.40;99.90;;;;;;5079615;28;20044;-63
2022/12/13 10:10:00;;;;;;;17.02;6.15;;;-6.20;99.90;;;;;;5084185;28;20097;-63
2022/12/13 10:12:27;;;;;;;19.88;5.78;;;-6.10;99.90;;;;;;5092603;28;20036;-63
2022/12/13 10:14:59;;;;;;;16.70;5.30;;;-6.20;99.90;;;;;;5077211;28;20071;-63
2022/12/13 10:17:31;;;;;;;19.13;5.97;;;-6.10;99.90;;;;;;5072747;28;20029;-63
2022/12/13 10:20:04;;;;;;;10.25;5.18;;;-6.10;99.90;;;;;;5071786;28;20074;-63
2022/12/13 10:22:31;;;;;;;18.02;5.57;;;-5.90;99.90;;;;;;5086405;28;20059;-63
2022/12/13 10:25:03;;;;;;;15.48;5.13;;;-5.70;99.90;;;;;;5083971;28;20142;-63
2022/12/13 10:27:43;;;;;;;16.48;5.63;;;-5.60;99.90;;;;;;5092486;28;20093;-63
2022/12/13 10:30:23;;;;;;;18.65;5.93;;;-5.50;99.90;;;;;;5091662;28;20063;-63
2022/12/13 10:33:03;;;;;;;16.90;5.35;;;-5.40;99.90;;;;;;5081727;28;20046;-63
2022/12/13 10:35:34;;;;;;;27.55;5.50;;;-5.30;99.90;;;;;;5071992;28;20040;-63
2022/12/13 10:38:18;;;;;;;14.98;4.40;;;-5.20;99.90;;;;;;5071691;28;20068;-63
2022/12/13 10:40:47;;;;;;;10.60;4.63;;;-5.20;99.90;;;;;;5071634;28;20436;-63
2022/12/13 10:43:16;;;;;;;10.95;4.68;;;-5.20;99.90;;;;;;5078454;28;20397;-63
2022/12/13 10:45:58;;;;;;;15.25;4.72;;;-5.10;99.90;;;;;;5071687;28;20412;-63
2022/12/13 10:48:38;;;;;;;21.65;5.10;;;-5.10;99.90;;;;;;5071772;28;20059;-63
2022/12/13 10:51:15;;;;;;;18.67;4.45;;;-5.00;99.90;;;;;;5082434;28;20052;-63
2022/12/13 10:53:57;;;;;;;12.70;3.88;;;-5.00;99.90;;;;;;5065429;28;20548;-63
2022/12/13 10:56:35;;;;;;;19.92;4.43;;;-4.90;99.90;;;;;;5092009;28;20097;-63
2022/12/13 10:59:09;;;;;;;16.30;4.13;;;-4.80;99.90;;;;;;5091552;28;20313;-63
2022/12/13 11:01:43;;;;;;;10.85;3.70;;;-4.80;99.90;;;;;;5073764;28;20036;-63
2022/12/13 11:04:19;;;;;;;15.55;4.32;;;-4.80;99.90;;;;;;5071378;28;20044;-63
2022/12/13 11:06:53;;;;;;;16.63;4.57;;;-4.60;99.90;;;;;;5071726;28;20051;-63
2022/12/13 11:09:34;;;;;;;12.27;4.10;;;-4.50;99.90;;;;;;5070701;28;20086;-63
2022/12/13 11:12:18;;;;;;;12.00;3.97;;;-4.20;99.90;;;;;;5083077;28;20039;-63
2022/12/13 11:14:51;;;;;;;9.25;3.38;;;-4.00;99.90;;;;;;5091333;28;20110;-63
2022/12/13 11:17:21;;;;;;;12.10;4.03;;;-4.00;99.90;;;;;;5076080;28;20118;-63
2022/12/13 11:19:51;;;;;;;18.25;4.57;;;-3.90;99.90;;;;;;5070745;28;20476;-63
2022/12/13 11:22:33;;;;;;;20.15;4.13;;;-3.90;99.90;;;;;;5070281;28;20040;-63
2022/12/13 11:25:17;;;;;;;7.93;3.72;;;-4.00;99.90;;;;;;5059605;28;20518;-63
2022/12/13 11:28:00;;;;;;;7.97;4.20;;;-4.10;99.90;;;;;;5080883;28;20119;-63
2022/12/13 11:30:36;;;;;;;16.17;4.22;;;-4.10;99.90;;;;;;5070918;28;20036;-63
2022/12/13 11:33:25;;;;;;;21.70;4.72;;;-4.10;99.90;;;;;;5070045;28;20409;-63
2022/12/13 11:35:57;;;;;;;17.45;3.75;;;-4.10;99.90;;;;;;5071057;28;20087;-63
2022/12/13 11:38:43;;;;;;;14.18;4.53;;;-4.10;99.90;;;;;;5069998;28;20087;-63
2022/12/13 11:41:33;;;;;;;12.13;3.80;;;-4.20;99.90;;;;;;5071391;28;20409;-63
2022/12/13 11:44:14;;;;;;;14.55;3.40;;;-4.10;99.90;;;;;;5079420;28;20037;-63
2022/12/13 11:46:49;;;;;;;16.52;4.30;;;-4.00;99.90;;;;;;5077585;28;20123;-63
2022/12/13 11:49:20;;;;;;;20.63;3.95;;;-4.10;99.90;;;;;;5070289;28;20052;-63
2022/12/13 11:52:01;;;;;;;18.63;4.25;;;-4.10;99.90;;;;;;5070304;28;20480;-63
2022/12/13 11:54:43;;;;;;;15.23;4.13;;;-4.00;99.90;;;;;;5070126;28;20052;-63
2022/12/13 11:57:43;;;;;;;15.38;3.78;;;-3.90;99.90;;;;;;5070941;28;20076;-63
2022/12/13 12:00:33;;;;;;;19.50;4.00;;;-3.80;99.90;;;;;;5082423;28;20047;-63
2022/12/13 12:03:14;;;;;;;15.70;4.15;;;-3.80;99.90;;;;;;5086427;28;20051;-63
2022/12/13 12:05:50;;;;;;;20.13;4.88;;;-3.80;99.90;;;;;;5095336;28;20044;-63
2022/12/13 12:08:45;;;;;;;14.90;3.97;;;-3.70;99.90;;;;;;5094876;28;20122;-63
2022/12/13 12:11:20;;;;;;;17.05;4.43;;;-3.70;99.90;;;;;;5083050;28;20232;-63
2022/12/13 12:13:54;;;;;;;12.35;4.13;;;-3.60;99.90;;;;;;5074435;28;20119;-63
2022/12/13 12:16:50;;;;;;;10.85;3.75;;;-3.70;99.90;;;;;;5080082;28;20036;-63
2022/12/13 12:19:28;;;;;;;7.40;3.30;;;-3.70;99.90;;;;;;5088147;28;20592;-62
2022/12/13 12:22:07;;;;;;;6.28;2.85;;;-3.60;99.90;;;;;;5094369;28;20078;-63
2022/12/13 12:25:00;;;;;;;17.30;4.18;;;-3.60;99.90;;;;;;5093588;28;20408;-63
2022/12/13 12:27:35;;;;;;;8.57;3.38;;;-3.50;99.90;;;;;;5071708;28;20079;-63
2022/12/13 12:30:19;;;;;;;9.63;4.20;;;-3.50;99.90;;;;;;5094635;28;20052;-63
2022/12/13 12:33:13;;;;;;;14.00;3.28;;;-3.40;99.90;;;;;;5094026;28;20093;-63
2022/12/13 12:35:49;;;;;;;8.00;2.83;;;-3.30;99.90;;;;;;5090671;28;20113;-63
2022/12/13 12:38:46;;;;;;;7.93;2.83;;;-3.20;99.90;;;;;;5094459;28;20087;-63
2022/12/13 12:41:31;;;;;;;5.60;2.67;;;-3.10;99.90;;;;;;5094363;28;20079;-63
2022/12/13 12:44:24;;;;;;;12.35;3.67;;;-3.00;99.90;;;;;;5093753;28;20066;-63
2022/12/13 12:47:01;;;;;;;35.80;4.70;;;-2.90;99.90;;;;;;5034734;28;20512;-63
2022/12/13 12:50:01;;;;;;;14.93;4.43;;;-2.90;99.90;;;;;;5073796;28;20287;-63
2022/12/13 12:53:04;;;;;;;13.70;3.90;;;-2.80;99.90;;;;;;5073671;28;20094;-63
2022/12/13 12:56:00;;;;;;;17.05;4.43;;;-2.80;99.90;;;;;;5054878;28;20045;-63
2022/12/13 12:58:39;;;;;;;16.00;3.95;;;-2.90;99.90;;;;;;5089097;28;20036;-63
2022/12/13 13:01:35;;;;;;;13.65;4.25;;;-2.90;99.90;;;;;;5077821;28;20052;-63
2022/12/13 13:04:14;;;;;;;14.57;4.13;;;-2.90;99.90;;;;;;5073239;28;20577;-63
2022/12/13 13:07:02;;;;;;;12.27;3.92;;;-2.90;99.90;;;;;;5073647;28;20531;-63
2022/12/13 13:09:30;;;;;;;11.65;3.53;;;-2.90;99.90;;;;;;5077649;28;20063;-63
2022/12/13 13:12:01;;;;;;;9.38;4.00;;;-2.90;99.90;;;;;;5072765;28;20131;-63
2022/12/13 13:14:48;;;;;;;10.07;3.53;;;-2.80;99.90;;;;;;5073232;28;20047;-63
2022/12/13 13:17:14;;;;;;;9.27;2.72;;;-2.60;99.90;;;;;;5073832;28;20064;-63
2022/12/13 13:19:46;;;;;;;10.70;3.55;;;-2.50;99.90;;;;;;5073166;28;20060;-63